sensor_id;sensor_type;location;lat;lon;timestamp;pressure;altitude;pressure_sealevel;temperature;humidity
18275;BME280;19470;49.322;7.218;2023-04-02T00:01:25;97860.81;;;13.71;100.00
18275;BME280;19470;49.322;7.218;2023-04-02T00:04:10;97864.56;;;13.94;100.00
18275;BME280;19470;49.322;7.218;2023-04-02T00:06:38;97865.47;;;13.21;100.00
18275;BME280;19470;49.322;7.218;2023-04-02T00:09:29;97880.09;;;13.58;100.00
18275;BME280;19470;49.322;7.218;2023-04-02T00:11:57;97881.66;;;13.29;100.00
18275;BME280;19470;49.322;7.218;2023-04-02T00:14:26;97883.38;;;14.02;100.00
18275;BME280;19470;49.322;7.218;2023-04-02T00:16:56;97882.50;;;13.54;100.00
18275;BME280;19470;49.322;7.218;2023-04-02T00:19:29;97885.75;;;13.51;100.00
18275;BME280;19470;49.322;7.218;2023-04-02T00:21:57;97880.13;;;13.23;100.00
18275;BME280;19470;49.322;7.218;2023-04-02T00:24:25;97882.78;;;13.23;100.00
18275;BME280;19470;49.322;7.218;2023-04-02T00:26:54;97881.38;;;13.31;100.00
18275;BME280;19470;49.322;7.218;2023-04-02T00:29:21;97885.75;;;12.72;100.00
18275;BME280;19470;49.322;7.218;2023-04-02T00:31:49;97880.19;;;13.13;100.00
18275;BME280;19470;49.322;7.218;2023-04-02T00:34:19;97895.81;;;12.81;100.00
18275;BME280;19470;49.322;7.218;2023-04-02T00:36:46;97888.81;;;12.95;100.00
18275;BME280;19470;49.322;7.218;2023-04-02T00:39:18;97885.91;;;12.91;100.00
18275;BME280;19470;49.322;7.218;2023-04-02T00:41:46;97880.97;;;13.77;100.00
18275;BME280;19470;49.322;7.218;2023-04-02T00:44:15;97889.13;;;12.83;100.00
18275;BME280;19470;49.322;7.218;2023-04-02T00:46:47;97878.38;;;13.03;100.00
18275;BME280;19470;49.322;7.218;2023-04-02T00:49:20;97882.59;;;13.44;100.00
18275;BME280;19470;49.322;7.218;2023-04-02T00:51:50;97882.50;;;13.54;100.00
18275;BME280;19470;49.322;7.218;2023-04-02T00:54:20;97880.94;;;13.53;100.00
18275;BME280;19470;49.322;7.218;2023-04-02T00:56:52;97884.84;;;13.90;100.00
18275;BME280;19470;49.322;7.218;2023-04-02T00:59:26;97882.69;;;13.92;100.00
18275;BME280;19470;49.322;7.218;2023-04-02T01:01:58;97884.84;;;13.32;100.00
18275;BME280;19470;49.322;7.218;2023-04-02T01:04:30;97885.50;;;14.00;100.00
18275;BME280;19470;49.322;7.218;2023-04-02T01:07:00;97888.13;;;13.18;100.00
18275;BME280;19470;49.322;7.218;2023-04-02T01:09:41;97879.38;;;13.76;100.00
18275;BME280;19470;49.322;7.218;2023-04-02T01:12:26;97899.06;;;13.51;100.00
18275;BME280;19470;49.322;7.218;2023-04-02T01:15:03;97889.66;;;14.12;100.00
18275;BME280;19470;49.322;7.218;2023-04-02T01:17:42;97894.88;;;13.69;100.00
18275;BME280;19470;49.322;7.218;2023-04-02T01:23:23;97902.16;;;12.79;100.00
18275;BME280;19470;49.322;7.218;2023-04-02T01:25:56;97896.31;;;12.83;100.00
18275;BME280;19470;49.322;7.218;2023-04-02T01:28:27;97897.47;;;13.45;100.00
18275;BME280;19470;49.322;7.218;2023-04-02T01:31:00;97899.00;;;13.17;100.00
18275;BME280;19470;49.322;7.218;2023-04-02T01:33:29;97907.56;;;13.14;100.00
18275;BME280;19470;49.322;7.218;2023-04-02T01:36:04;97901.66;;;13.56;100.00
18275;BME280;19470;49.322;7.218;2023-04-02T01:38:39;97908.81;;;13.61;100.00
18275;BME280;19470;49.322;7.218;2023-04-02T01:41:15;97900.56;;;13.86;100.00
18275;BME280;19470;49.322;7.218;2023-04-02T01:43:50;97908.50;;;13.62;100.00
18275;BME280;19470;49.322;7.218;2023-04-02T01:46:26;97912.88;;;14.06;100.00
18275;BME280;19470;49.322;7.218;2023-04-02T01:48:53;97915.56;;;13.48;100.00
18275;BME280;19470;49.322;7.218;2023-04-02T01:51:28;97914.84;;;13.37;100.00
18275;BME280;19470;49.322;7.218;2023-04-02T01:53:58;97920.28;;;13.56;100.00
18275;BME280;19470;49.322;7.218;2023-04-02T01:56:26;97918.44;;;13.22;100.00
18275;BME280;19470;49.322;7.218;2023-04-02T01:58:55;97923.03;;;13.46;100.00
18275;BME280;19470;49.322;7.218;2023-04-02T02:01:27;97922.31;;;12.91;100.00
18275;BME280;19470;49.322;7.218;2023-04-02T02:03:58;97923.50;;;13.53;100.00
18275;BME280;19470;49.322;7.218;2023-04-02T02:06:25;97920.97;;;13.38;100.00
18275;BME280;19470;49.322;7.218;2023-04-02T02:08:54;97930.97;;;13.51;100.00
18275;BME280;19470;49.322;7.218;2023-04-02T02:11:24;97926.53;;;13.41;100.00
18275;BME280;19470;49.322;7.218;2023-04-02T02:13:54;97939.44;;;12.64;100.00
18275;BME280;19470;49.322;7.218;2023-04-02T02:16:21;97938.25;;;12.91;100.00
18275;BME280;19470;49.322;7.218;2023-04-02T02:18:51;97933.50;;;12.83;100.00
18275;BME280;19470;49.322;7.218;2023-04-02T02:21:28;97932.19;;;13.29;100.00
18275;BME280;19470;49.322;7.218;2023-04-02T02:24:00;97942.88;;;12.70;100.00
18275;BME280;19470;49.322;7.218;2023-04-02T02:26:30;97942.16;;;12.49;100.00
18275;BME280;19470;49.322;7.218;2023-04-02T02:29:02;97945.00;;;13.22;100.00
18275;BME280;19470;49.322;7.218;2023-04-02T02:31:31;97948.44;;;13.28;100.00
18275;BME280;19470;49.322;7.218;2023-04-02T02:34:02;97949.97;;;13.68;100.00
18275;BME280;19470;49.322;7.218;2023-04-02T02:36:34;97951.09;;;13.91;100.00
18275;BME280;19470;49.322;7.218;2023-04-02T02:39:09;97956.53;;;13.47;100.00
18275;BME280;19470;49.322;7.218;2023-04-02T02:41:40;97952.09;;;12.88;100.00
18275;BME280;19470;49.322;7.218;2023-04-02T02:44:12;97965.13;;;13.97;100.00
18275;BME280;19470;49.322;7.218;2023-04-02T02:46:44;97956.91;;;13.64;100.00
18275;BME280;19470;49.322;7.218;2023-04-02T02:49:17;97955.88;;;14.18;100.00
18275;BME280;19470;49.322;7.218;2023-04-02T02:51:46;97963.19;;;13.78;100.00
18275;BME280;19470;49.322;7.218;2023-04-02T02:54:16;97963.81;;;14.23;100.00
18275;BME280;19470;49.322;7.218;2023-04-02T02:56:46;97967.34;;;13.90;100.00
18275;BME280;19470;49.322;7.218;2023-04-02T02:59:13;97967.31;;;13.95;100.00
18275;BME280;19470;49.322;7.218;2023-04-02T03:01:42;97967.75;;;14.02;100.00
18275;BME280;19470;49.322;7.218;2023-04-02T03:04:10;97966.66;;;13.79;100.00
18275;BME280;19470;49.322;7.218;2023-04-02T03:10:03;97982.72;;;13.98;100.00
18275;BME280;19470;49.322;7.218;2023-04-02T03:12:39;97980.75;;;13.79;100.00
18275;BME280;19470;49.322;7.218;2023-04-02T03:15:16;97986.63;;;13.76;100.00
18275;BME280;19470;49.322;7.218;2023-04-02T03:17:47;97978.13;;;13.74;100.00
18275;BME280;19470;49.322;7.218;2023-04-02T03:20:19;97983.16;;;14.05;100.00
18275;BME280;19470;49.322;7.218;2023-04-02T03:22:53;97984.69;;;14.16;100.00
18275;BME280;19470;49.322;7.218;2023-04-02T03:25:26;97989.06;;;13.34;100.00
18275;BME280;19470;49.322;7.218;2023-04-02T03:27:59;97993.41;;;14.22;100.00
18275;BME280;19470;49.322;7.218;2023-04-02T03:30:30;98006.31;;;13.75;100.00
18275;BME280;19470;49.322;7.218;2023-04-02T03:33:02;97999.31;;;14.43;100.00
18275;BME280;19470;49.322;7.218;2023-04-02T03:35:35;98000.81;;;13.17;100.00
18275;BME280;19470;49.322;7.218;2023-04-02T03:38:09;98006.41;;;13.65;100.00
18275;BME280;19470;49.322;7.218;2023-04-02T03:40:41;98006.53;;;14.13;100.00
18275;BME280;19470;49.322;7.218;2023-04-02T03:43:14;98005.13;;;14.50;100.00
18275;BME280;19470;49.322;7.218;2023-04-02T03:45:44;98016.44;;;14.07;100.00
18275;BME280;19470;49.322;7.218;2023-04-02T03:48:17;98012.72;;;14.32;100.00
18275;BME280;19470;49.322;7.218;2023-04-02T03:50:49;98019.94;;;14.03;100.00
18275;BME280;19470;49.322;7.218;2023-04-02T03:53:22;98023.53;;;14.17;100.00
18275;BME280;19470;49.322;7.218;2023-04-02T03:55:51;98020.69;;;14.09;100.00
18275;BME280;19470;49.322;7.218;2023-04-02T03:58:21;98027.94;;;14.03;100.00
18275;BME280;19470;49.322;7.218;2023-04-02T04:00:52;98031.44;;;14.27;100.00
18275;BME280;19470;49.322;7.218;2023-04-02T04:03:24;98032.06;;;14.14;100.00
18275;BME280;19470;49.322;7.218;2023-04-02T04:05:55;98038.19;;;13.86;100.00
18275;BME280;19470;49.322;7.218;2023-04-02T04:08:24;98036.84;;;14.17;100.00
18275;BME280;19470;49.322;7.218;2023-04-02T04:10:56;98042.88;;;14.57;100.00
18275;BME280;19470;49.322;7.218;2023-04-02T04:13:30;98042.28;;;14.07;100.00
18275;BME280;19470;49.322;7.218;2023-04-02T04:16:03;98048.38;;;14.37;100.00
18275;BME280;19470;49.322;7.218;2023-04-02T04:18:32;98048.81;;;13.86;100.00
18275;BME280;19470;49.322;7.218;2023-04-02T04:21:04;98046.44;;;13.84;100.00
18275;BME280;19470;49.322;7.218;2023-04-02T04:23:37;98060.50;;;13.45;100.00
18275;BME280;19470;49.322;7.218;2023-04-02T04:26:16;98061.59;;;13.89;100.00
18275;BME280;19470;49.322;7.218;2023-04-02T04:28:52;98062.72;;;14.12;100.00
18275;BME280;19470;49.322;7.218;2023-04-02T04:31:26;98067.78;;;14.13;100.00
18275;BME280;19470;49.322;7.218;2023-04-02T04:33:59;98075.22;;;14.11;100.00
18275;BME280;19470;49.322;7.218;2023-04-02T04:36:36;98067.19;;;14.21;100.00
18275;BME280;19470;49.322;7.218;2023-04-02T04:39:13;98068.63;;;13.25;100.00
18275;BME280;19470;49.322;7.218;2023-04-02T04:41:47;98077.97;;;14.01;100.00
18275;BME280;19470;49.322;7.218;2023-04-02T04:44:17;98083.03;;;13.63;100.00
18275;BME280;19470;49.322;7.218;2023-04-02T04:46:50;98088.44;;;13.48;100.00
18275;BME280;19470;49.322;7.218;2023-04-02T04:49:20;98088.34;;;14.37;100.00
18275;BME280;19470;49.322;7.218;2023-04-02T04:51:50;98094.78;;;14.30;100.00
18275;BME280;19470;49.322;7.218;2023-04-02T04:54:18;98095.72;;;13.76;100.00
18275;BME280;19470;49.322;7.218;2023-04-02T04:56:49;98100.16;;;13.47;100.00
18275;BME280;19470;49.322;7.218;2023-04-02T04:59:20;98105.34;;;13.67;100.00
18275;BME280;19470;49.322;7.218;2023-04-02T05:01:52;98105.19;;;13.48;100.00
18275;BME280;19470;49.322;7.218;2023-04-02T05:04:23;98102.41;;;13.74;100.00
18275;BME280;19470;49.322;7.218;2023-04-02T05:06:55;98105.34;;;13.67;100.00
18275;BME280;19470;49.322;7.218;2023-04-02T05:09:26;98110.19;;;13.60;100.00
18275;BME280;19470;49.322;7.218;2023-04-02T05:12:04;98114.59;;;13.25;100.00
18275;BME280;19470;49.322;7.218;2023-04-02T05:14:36;98111.94;;;13.25;100.00
18275;BME280;19470;49.322;7.218;2023-04-02T05:17:08;98112.22;;;13.78;100.00
18275;BME280;19470;49.322;7.218;2023-04-02T05:19:41;98119.38;;;13.28;100.00
18275;BME280;19470;49.322;7.218;2023-04-02T05:22:18;98120.84;;;13.60;100.00
18275;BME280;19470;49.322;7.218;2023-04-02T05:24:52;98128.09;;;13.44;100.00
18275;BME280;19470;49.322;7.218;2023-04-02T05:27:28;98124.75;;;13.73;100.00
18275;BME280;19470;49.322;7.218;2023-04-02T05:30:04;98123.59;;;14.23;100.00
18275;BME280;19470;49.322;7.218;2023-04-02T05:32:35;98138.50;;;14.24;100.00
18275;BME280;19470;49.322;7.218;2023-04-02T05:35:03;98137.91;;;14.32;100.00
18275;BME280;19470;49.322;7.218;2023-04-02T05:40:58;98136.06;;;13.94;100.00
18275;BME280;19470;49.322;7.218;2023-04-02T05:43:30;98137.78;;;13.74;100.00
18275;BME280;19470;49.322;7.218;2023-04-02T05:46:01;98143.94;;;14.09;100.00
18275;BME280;19470;49.322;7.218;2023-04-02T05:48:32;98146.00;;;14.56;100.00
18275;BME280;19470;49.322;7.218;2023-04-02T05:51:01;98147.81;;;14.61;100.00
18275;BME280;19470;49.322;7.218;2023-04-02T05:53:32;98152.66;;;14.59;100.00
18275;BME280;19470;49.322;7.218;2023-04-02T05:56:03;98152.13;;;13.78;100.00
18275;BME280;19470;49.322;7.218;2023-04-02T05:58:35;98166.16;;;13.94;100.00
18275;BME280;19470;49.322;7.218;2023-04-02T06:01:10;98158.72;;;14.30;100.00
18275;BME280;19470;49.322;7.218;2023-04-02T06:03:46;98161.97;;;14.86;100.00
18275;BME280;19470;49.322;7.218;2023-04-02T06:06:22;98165.06;;;14.98;100.00
18275;BME280;19470;49.322;7.218;2023-04-02T06:08:56;98167.44;;;14.99;100.00
18275;BME280;19470;49.322;7.218;2023-04-02T06:11:27;98169.13;;;14.90;100.00
18275;BME280;19470;49.322;7.218;2023-04-02T06:13:57;98180.78;;;14.70;100.00
18275;BME280;19470;49.322;7.218;2023-04-02T06:16:27;98180.81;;;14.65;100.00
18275;BME280;19470;49.322;7.218;2023-04-02T06:18:56;98191.53;;;14.60;100.00
18275;BME280;19470;49.322;7.218;2023-04-02T06:21:24;98195.59;;;14.81;100.00
18275;BME280;19470;49.322;7.218;2023-04-02T06:23:54;98199.09;;;14.48;100.00
18275;BME280;19470;49.322;7.218;2023-04-02T06:26:24;98205.84;;;14.98;100.00
18275;BME280;19470;49.322;7.218;2023-04-02T06:28:56;98203.00;;;14.61;100.00
18275;BME280;19470;49.322;7.218;2023-04-02T06:31:28;98215.34;;;13.97;100.00
18275;BME280;19470;49.322;7.218;2023-04-02T06:33:56;98208.66;;;14.04;100.00
18275;BME280;19470;49.322;7.218;2023-04-02T06:36:24;98218.41;;;14.24;100.00
18275;BME280;19470;49.322;7.218;2023-04-02T06:38:55;98224.66;;;14.83;100.00
18275;BME280;19470;49.322;7.218;2023-04-02T06:41:24;98232.38;;;14.50;100.00
18275;BME280;19470;49.322;7.218;2023-04-02T06:43:52;98231.09;;;13.93;100.00
18275;BME280;19470;49.322;7.218;2023-04-02T06:46:27;98233.91;;;14.91;100.00
18275;BME280;19470;49.322;7.218;2023-04-02T06:49:00;98235.38;;;14.33;100.00
18275;BME280;19470;49.322;7.218;2023-04-02T06:51:30;98244.41;;;14.77;100.00
18275;BME280;19470;49.322;7.218;2023-04-02T06:53:59;98242.13;;;15.47;100.00
18275;BME280;19470;49.322;7.218;2023-04-02T06:56:37;98251.72;;;15.77;100.00
18275;BME280;19470;49.322;7.218;2023-04-02T06:59:06;98260.75;;;15.52;100.00
18275;BME280;19470;49.322;7.218;2023-04-02T07:01:36;98260.28;;;15.74;100.00
18275;BME280;19470;49.322;7.218;2023-04-02T07:04:05;98267.13;;;15.32;100.00
18275;BME280;19470;49.322;7.218;2023-04-02T07:06:32;98275.53;;;15.45;100.00
18275;BME280;19470;49.322;7.218;2023-04-02T07:08:58;98276.44;;;15.64;100.00
18275;BME280;19470;49.322;7.218;2023-04-02T07:11:25;98285.63;;;15.48;100.00
18275;BME280;19470;49.322;7.218;2023-04-02T07:13:51;98279.59;;;15.66;100.00
18275;BME280;19470;49.322;7.218;2023-04-02T07:16:19;98288.84;;;15.98;100.00
18275;BME280;19470;49.322;7.218;2023-04-02T07:18:48;98288.84;;;15.98;100.00
18275;BME280;19470;49.322;7.218;2023-04-02T07:21:14;98297.03;;;15.82;100.00
18275;BME280;19470;49.322;7.218;2023-04-02T07:23:41;98305.72;;;15.69;100.00
18275;BME280;19470;49.322;7.218;2023-04-02T07:26:12;98305.31;;;16.05;100.00
18275;BME280;19470;49.322;7.218;2023-04-02T07:28:39;98314.84;;;15.63;100.00
18275;BME280;19470;49.322;7.218;2023-04-02T07:31:14;98317.56;;;15.58;100.00
18275;BME280;19470;49.322;7.218;2023-04-02T07:33:41;98324.97;;;15.66;100.00
18275;BME280;19470;49.322;7.218;2023-04-02T07:36:12;98326.53;;;15.43;100.00
18275;BME280;19470;49.322;7.218;2023-04-02T07:38:39;98332.50;;;15.30;100.00
18275;BME280;19470;49.322;7.218;2023-04-02T07:41:06;98331.09;;;15.38;100.00
18275;BME280;19470;49.322;7.218;2023-04-02T07:43:32;98334.00;;;15.12;100.00
18275;BME280;19470;49.322;7.218;2023-04-02T07:45:59;98332.78;;;15.87;100.00
18275;BME280;19470;49.322;7.218;2023-04-02T07:48:26;98339.09;;;15.38;100.00
18275;BME280;19470;49.322;7.218;2023-04-02T07:50:53;98336.19;;;16.35;100.00
18275;BME280;19470;49.322;7.218;2023-04-02T07:53:27;98344.50;;;16.33;100.00
18275;BME280;19470;49.322;7.218;2023-04-02T07:55:57;98347.94;;;15.67;100.00
18275;BME280;19470;49.322;7.218;2023-04-02T07:58:24;98357.28;;;15.36;100.00
18275;BME280;19470;49.322;7.218;2023-04-02T08:00:50;98357.69;;;15.48;100.00
18275;BME280;19470;49.322;7.218;2023-04-02T08:03:17;98364.41;;;15.74;100.00
18275;BME280;19470;49.322;7.218;2023-04-02T08:05:48;98366.97;;;14.87;100.00
18275;BME280;19470;49.322;7.218;2023-04-02T08:08:15;98371.25;;;15.22;100.00
18275;BME280;19470;49.322;7.218;2023-04-02T08:10:43;98376.00;;;15.30;100.00
18275;BME280;19470;49.322;7.218;2023-04-02T08:13:09;98376.78;;;15.65;100.00
18275;BME280;19470;49.322;7.218;2023-04-02T08:15:36;98382.44;;;15.88;100.00
18275;BME280;19470;49.322;7.218;2023-04-02T08:18:03;98380.41;;;15.74;100.00
18275;BME280;19470;49.322;7.218;2023-04-02T08:20:30;98381.63;;;14.90;100.00
18275;BME280;19470;49.322;7.218;2023-04-02T08:22:56;98383.00;;;15.21;100.00
18275;BME280;19470;49.322;7.218;2023-04-02T08:25:25;98391.13;;;16.22;100.00
18275;BME280;19470;49.322;7.218;2023-04-02T08:27:53;98390.44;;;16.97;99.77
18275;BME280;19470;49.322;7.218;2023-04-02T08:30:20;98398.31;;;17.40;97.58
18275;BME280;19470;49.322;7.218;2023-04-02T08:32:46;98397.00;;;17.56;95.88
18275;BME280;19470;49.322;7.218;2023-04-02T08:35:14;98412.50;;;15.69;100.00
18275;BME280;19470;49.322;7.218;2023-04-02T08:37:41;98416.66;;;16.33;98.04
18275;BME280;19470;49.322;7.218;2023-04-02T08:40:17;98414.97;;;16.61;97.18
18275;BME280;19470;49.322;7.218;2023-04-02T08:46:13;98424.41;;;16.97;96.00
18275;BME280;19470;49.322;7.218;2023-04-02T08:48:49;98432.69;;;17.52;89.95
18275;BME280;19470;49.322;7.218;2023-04-02T08:51:22;98432.59;;;17.90;88.78
18275;BME280;19470;49.322;7.218;2023-04-02T08:53:51;98444.22;;;17.99;87.87
18275;BME280;19470;49.322;7.218;2023-04-02T08:56:23;98438.72;;;17.76;88.39
18275;BME280;19470;49.322;7.218;2023-04-02T08:58:53;98445.81;;;18.00;86.63
18275;BME280;19470;49.322;7.218;2023-04-02T09:01:29;98454.06;;;18.03;85.98
18275;BME280;19470;49.322;7.218;2023-04-02T09:04:01;98456.09;;;17.08;91.18
18275;BME280;19470;49.322;7.218;2023-04-02T09:06:28;98460.28;;;17.15;91.87
18275;BME280;19470;49.322;7.218;2023-04-02T09:08:56;98458.53;;;17.05;90.51
18275;BME280;19470;49.322;7.218;2023-04-02T09:11:24;98463.81;;;17.10;89.95
18275;BME280;19470;49.322;7.218;2023-04-02T09:13:54;98476.56;;;17.18;91.25
18275;BME280;19470;49.322;7.218;2023-04-02T09:16:36;98469.56;;;16.79;91.20
18275;BME280;19470;49.322;7.218;2023-04-02T09:19:14;98476.03;;;17.16;92.46
18275;BME280;19470;49.322;7.218;2023-04-02T09:21:44;98477.84;;;17.02;90.80
18275;BME280;19470;49.322;7.218;2023-04-02T09:24:13;98479.72;;;17.20;90.03
18275;BME280;19470;49.322;7.218;2023-04-02T09:26:39;98471.31;;;17.65;90.63
18275;BME280;19470;49.322;7.218;2023-04-02T09:29:23;98482.94;;;17.93;84.78
18275;BME280;19470;49.322;7.218;2023-04-02T09:32:00;98485.41;;;16.52;90.84
18275;BME280;19470;49.322;7.218;2023-04-02T09:34:34;98487.91;;;17.10;91.33
18275;BME280;19470;49.322;7.218;2023-04-02T09:37:06;98490.06;;;17.65;88.07
18275;BME280;19470;49.322;7.218;2023-04-02T09:39:33;98508.66;;;17.37;89.74
18275;BME280;19470;49.322;7.218;2023-04-02T09:42:05;98505.84;;;17.99;86.44
18275;BME280;19470;49.322;7.218;2023-04-02T09:44:32;98509.38;;;18.13;83.72
18275;BME280;19470;49.322;7.218;2023-04-02T09:47:01;98518.72;;;17.97;84.94
18275;BME280;19470;49.322;7.218;2023-04-02T09:49:30;98517.63;;;18.17;85.03
18275;BME280;19470;49.322;7.218;2023-04-02T09:52:18;98525.47;;;18.27;82.42
18275;BME280;19470;49.322;7.218;2023-04-02T09:54:46;98527.06;;;17.95;83.74
18275;BME280;19470;49.322;7.218;2023-04-02T09:57:19;98523.94;;;18.07;82.97
18275;BME280;19470;49.322;7.218;2023-04-02T10:00:06;98530.72;;;17.67;84.88
18275;BME280;19470;49.322;7.218;2023-04-02T10:02:34;98532.16;;;16.78;89.38
18275;BME280;19470;49.322;7.218;2023-04-02T10:05:02;98541.69;;;16.90;90.96
18275;BME280;19470;49.322;7.218;2023-04-02T10:07:32;98544.31;;;17.14;91.31
18275;BME280;19470;49.322;7.218;2023-04-02T10:10:01;98539.84;;;17.47;88.80
18275;BME280;19470;49.322;7.218;2023-04-02T10:12:29;98546.78;;;17.67;88.07
18275;BME280;19470;49.322;7.218;2023-04-02T10:14:58;98554.81;;;17.48;85.94
18275;BME280;19470;49.322;7.218;2023-04-02T10:17:29;98561.41;;;17.93;84.80
18275;BME280;19470;49.322;7.218;2023-04-02T10:20:02;98551.88;;;18.33;83.39
18275;BME280;19470;49.322;7.218;2023-04-02T10:22:31;98560.97;;;18.65;82.76
18275;BME280;19470;49.322;7.218;2023-04-02T10:24:58;98557.19;;;18.66;78.87
18275;BME280;19470;49.322;7.218;2023-04-02T10:27:28;98565.41;;;18.42;79.82
18275;BME280;19470;49.322;7.218;2023-04-02T10:30:06;98565.09;;;18.44;80.57
18275;BME280;19470;49.322;7.218;2023-04-02T10:32:38;98573.22;;;18.38;80.66
18275;BME280;19470;49.322;7.218;2023-04-02T10:35:15;98576.47;;;17.70;83.36
18275;BME280;19470;49.322;7.218;2023-04-02T10:38:11;98577.56;;;17.69;85.56
18275;BME280;19470;49.322;7.218;2023-04-02T10:40:44;98578.59;;;18.38;81.73
18275;BME280;19470;49.322;7.218;2023-04-02T10:43:30;98589.94;;;18.03;84.84
18275;BME280;19470;49.322;7.218;2023-04-02T10:46:01;98587.75;;;18.37;82.47
18275;BME280;19470;49.322;7.218;2023-04-02T10:48:38;98589.19;;;18.16;81.84
18275;BME280;19470;49.322;7.218;2023-04-02T10:51:13;98585.34;;;18.69;79.51
18275;BME280;19470;49.322;7.218;2023-04-02T10:53:48;98600.56;;;17.70;87.12
18275;BME280;19470;49.322;7.218;2023-04-02T10:56:17;98603.50;;;18.06;84.73
18275;BME280;19470;49.322;7.218;2023-04-02T10:58:50;98599.13;;;18.29;82.06
18275;BME280;19470;49.322;7.218;2023-04-02T11:01:22;98615.16;;;17.59;87.15
18275;BME280;19470;49.322;7.218;2023-04-02T11:03:55;98612.13;;;18.22;83.98
18275;BME280;19470;49.322;7.218;2023-04-02T11:06:28;98613.59;;;17.96;86.44
18275;BME280;19470;49.322;7.218;2023-04-02T11:08:59;98623.47;;;18.33;81.52
18275;BME280;19470;49.322;7.218;2023-04-02T11:11:42;98620.41;;;18.07;81.98
18275;BME280;19470;49.322;7.218;2023-04-02T11:14:12;98628.22;;;18.22;79.36
18275;BME280;19470;49.322;7.218;2023-04-02T11:16:40;98623.41;;;18.19;79.75
18275;BME280;19470;49.322;7.218;2023-04-02T11:19:20;98624.97;;;17.87;80.40
18275;BME280;19470;49.322;7.218;2023-04-02T11:21:49;98636.78;;;18.38;80.33
18275;BME280;19470;49.322;7.218;2023-04-02T11:24:25;98633.94;;;17.78;81.97
18275;BME280;19470;49.322;7.218;2023-04-02T11:27:05;98640.75;;;18.08;81.78
18275;BME280;19470;49.322;7.218;2023-04-02T11:29:35;98642.84;;;18.11;81.57
18275;BME280;19470;49.322;7.218;2023-04-02T11:32:19;98650.63;;;18.78;77.00
18275;BME280;19470;49.322;7.218;2023-04-02T11:35:22;98643.19;;;19.44;72.90
18275;BME280;19470;49.322;7.218;2023-04-02T11:37:51;98657.53;;;19.25;72.95
18275;BME280;19470;49.322;7.218;2023-04-02T11:40:47;98654.81;;;19.66;70.96
18275;BME280;19470;49.322;7.218;2023-04-02T11:43:47;98654.63;;;19.49;74.26
18275;BME280;19470;49.322;7.218;2023-04-02T11:46:37;98667.66;;;19.28;73.73
18275;BME280;19470;49.322;7.218;2023-04-02T11:49:35;98677.69;;;18.11;78.62
18275;BME280;19470;49.322;7.218;2023-04-02T11:55:26;98694.66;;;17.16;96.74
18275;BME280;19470;49.322;7.218;2023-04-02T11:58:08;98702.56;;;16.39;100.00
18275;BME280;19470;49.322;7.218;2023-04-02T12:01:13;98715.22;;;15.73;100.00
18275;BME280;19470;49.322;7.218;2023-04-02T12:04:11;98705.19;;;15.40;100.00
18275;BME280;19470;49.322;7.218;2023-04-02T12:06:54;98717.91;;;15.68;100.00
18275;BME280;19470;49.322;7.218;2023-04-02T12:09:26;98721.03;;;14.90;100.00
18275;BME280;19470;49.322;7.218;2023-04-02T12:15:32;98728.16;;;15.30;100.00
18275;BME280;19470;49.322;7.218;2023-04-02T12:18:11;98740.69;;;15.40;100.00
18275;BME280;19470;49.322;7.218;2023-04-02T12:20:38;98746.34;;;14.98;100.00
18275;BME280;19470;49.322;7.218;2023-04-02T12:23:15;98750.31;;;15.21;100.00
18275;BME280;19470;49.322;7.218;2023-04-02T12:25:44;98749.81;;;15.03;100.00
18275;BME280;19470;49.322;7.218;2023-04-02T12:28:14;98749.38;;;15.81;100.00
18275;BME280;19470;49.322;7.218;2023-04-02T12:30:44;98745.16;;;15.65;100.00
18275;BME280;19470;49.322;7.218;2023-04-02T12:33:26;98757.16;;;15.52;100.00
18275;BME280;19470;49.322;7.218;2023-04-02T12:35:56;98768.75;;;14.56;100.00
18275;BME280;19470;49.322;7.218;2023-04-02T12:38:24;98766.41;;;15.96;100.00
18275;BME280;19470;49.322;7.218;2023-04-02T12:40:52;98775.22;;;15.91;100.00
18275;BME280;19470;49.322;7.218;2023-04-02T12:43:22;98780.22;;;15.13;100.00
18275;BME280;19470;49.322;7.218;2023-04-02T12:45:51;98787.94;;;15.04;100.00
18275;BME280;19470;49.322;7.218;2023-04-02T12:48:19;98791.28;;;15.86;100.00
18275;BME280;19470;49.322;7.218;2023-04-02T12:50:46;98782.81;;;15.64;100.00
18275;BME280;19470;49.322;7.218;2023-04-02T12:53:19;98787.06;;;16.29;100.00
18275;BME280;19470;49.322;7.218;2023-04-02T12:55:47;98803.91;;;15.45;100.00
18275;BME280;19470;49.322;7.218;2023-04-02T12:58:34;98803.97;;;14.78;100.00
18275;BME280;19470;49.322;7.218;2023-04-02T13:01:12;98807.84;;;15.78;100.00
18275;BME280;19470;49.322;7.218;2023-04-02T13:03:41;98811.16;;;16.24;100.00
18275;BME280;19470;49.322;7.218;2023-04-02T13:06:20;98808.94;;;15.72;100.00
18275;BME280;19470;49.322;7.218;2023-04-02T13:08:47;98813.16;;;15.88;100.00
18275;BME280;19470;49.322;7.218;2023-04-02T13:11:14;98814.69;;;16.09;97.56
18275;BME280;19470;49.322;7.218;2023-04-02T13:13:43;98819.13;;;15.24;100.00
18275;BME280;19470;49.322;7.218;2023-04-02T13:16:25;98821.72;;;15.80;100.00
18275;BME280;19470;49.322;7.218;2023-04-02T13:19:20;98824.31;;;16.05;98.37
18275;BME280;19470;49.322;7.218;2023-04-02T13:21:47;98822.09;;;15.12;100.00
18275;BME280;19470;49.322;7.218;2023-04-02T13:24:17;98827.81;;;16.01;97.06
18275;BME280;19470;49.322;7.218;2023-04-02T13:26:45;98832.25;;;15.15;100.00
18275;BME280;19470;49.322;7.218;2023-04-02T13:29:18;98826.56;;;14.55;100.00
18275;BME280;19470;49.322;7.218;2023-04-02T13:31:45;98842.09;;;14.94;100.00
18275;BME280;19470;49.322;7.218;2023-04-02T13:34:13;98843.94;;;15.04;100.00
18275;BME280;19470;49.322;7.218;2023-04-02T13:36:39;98841.81;;;15.37;99.48
18275;BME280;19470;49.322;7.218;2023-04-02T13:39:06;98841.25;;;15.55;98.90